HTDA/DAR METAR and TAF weather

Enter ICAO airport designator
Station Type Date Time Source
HTDA METAR 2021/02/24 20:00 UTC NOAA

HTDA 242000Z 00000KT 9999 FEW010 SCT080 25/24 Q1013 NOSIG


Station Type Date Time Source
HTDA Decoded METAR 2021/02/24 20:00 UTC NOAA

Dar Es Salaam Airport, Tanzania (HTDA) 06-52S 039-12E 55M
Feb 24, 2021 - 03:00 PM EST / 2021.02.24 2000 UTC
Wind: Calm:0
Visibility: greater than 7 mile(s):0
Sky conditions: partly cloudy
Temperature: 77 F (25 C)
Dew Point: 75 F (24 C)
Relative Humidity: 94%
Pressure (altimeter): 29.91 in. Hg (1013 hPa)
ob: HTDA 242000Z 00000KT 9999 FEW010 SCT080 25/24 Q1013 NOSIG
cycle: 20

Station Type Date Time Source
HTDA TAF 2021/02/24 18:33 UTC NOAA

TAF TAF HTDA 241700Z 2418/2524 05005KT 9999 SCT012 FEW012CB
BECMG 2420/2423 00000KT PROB40
TEMPO 2503/2509 35005KT TSRA BKN011 FEW012CB

Example: see airport list